sensor_id;sensor_type;location;lat;lon;timestamp;pressure;altitude;pressure_sealevel;temperature;humidity
70954;BME280;58618;47.490;8.736;2023-07-29T00:01:28;96216.16;;;16.22;100.00
70954;BME280;58618;47.490;8.736;2023-07-29T00:04:15;96219.38;;;16.19;100.00
70954;BME280;58618;47.490;8.736;2023-07-29T00:07:04;96211.50;;;16.07;100.00
70954;BME280;58618;47.490;8.736;2023-07-29T00:09:51;96214.72;;;16.04;100.00
70954;BME280;58618;47.490;8.736;2023-07-29T00:12:39;96210.63;;;15.94;100.00
70954;BME280;58618;47.490;8.736;2023-07-29T00:15:26;96211.13;;;15.88;100.00
70954;BME280;58618;47.490;8.736;2023-07-29T00:18:13;96221.91;;;16.07;100.00
70954;BME280;58618;47.490;8.736;2023-07-29T00:21:00;96214.19;;;15.90;100.00
70954;BME280;58618;47.490;8.736;2023-07-29T00:23:49;96219.19;;;15.95;100.00
70954;BME280;58618;47.490;8.736;2023-07-29T00:26:36;96213.53;;;15.93;100.00
70954;BME280;58618;47.490;8.736;2023-07-29T00:29:24;96210.09;;;15.80;100.00
70954;BME280;58618;47.490;8.736;2023-07-29T00:32:11;96217.47;;;15.70;100.00
70954;BME280;58618;47.490;8.736;2023-07-29T00:34:58;96206.69;;;15.88;100.00
70954;BME280;58618;47.490;8.736;2023-07-29T00:37:47;96203.84;;;15.73;100.00
70954;BME280;58618;47.490;8.736;2023-07-29T00:40:36;96204.31;;;15.66;100.00
70954;BME280;58618;47.490;8.736;2023-07-29T00:43:23;96206.31;;;15.60;100.00
70954;BME280;58618;47.490;8.736;2023-07-29T00:46:11;96198.16;;;15.71;100.00
70954;BME280;58618;47.490;8.736;2023-07-29T00:49:00;96195.03;;;15.56;100.00
70954;BME280;58618;47.490;8.736;2023-07-29T00:51:47;96186.47;;;15.47;100.00
70954;BME280;58618;47.490;8.736;2023-07-29T00:54:34;96187.38;;;15.51;100.00
70954;BME280;58618;47.490;8.736;2023-07-29T00:57:24;96196.09;;;15.55;100.00
70954;BME280;58618;47.490;8.736;2023-07-29T01:00:12;96187.84;;;15.45;100.00
70954;BME280;58618;47.490;8.736;2023-07-29T01:03:00;96197.34;;;15.41;100.00
70954;BME280;58618;47.490;8.736;2023-07-29T01:05:55;96194.72;;;15.41;100.00
70954;BME280;58618;47.490;8.736;2023-07-29T01:08:53;96203.94;;;15.38;100.00
70954;BME280;58618;47.490;8.736;2023-07-29T01:11:48;96190.78;;;15.35;100.00
70954;BME280;58618;47.490;8.736;2023-07-29T01:14:42;96190.34;;;15.24;100.00
70954;BME280;58618;47.490;8.736;2023-07-29T01:17:33;96182.53;;;15.24;100.00
70954;BME280;58618;47.490;8.736;2023-07-29T01:20:24;96183.56;;;15.40;100.00
70954;BME280;58618;47.490;8.736;2023-07-29T01:23:12;96189.56;;;15.32;100.00
70954;BME280;58618;47.490;8.736;2023-07-29T01:26:01;96186.66;;;15.25;100.00
70954;BME280;58618;47.490;8.736;2023-07-29T01:28:49;96192.03;;;15.20;100.00
70954;BME280;58618;47.490;8.736;2023-07-29T01:31:42;96189.09;;;15.30;100.00
70954;BME280;58618;47.490;8.736;2023-07-29T01:34:37;96179.19;;;15.32;100.00
70954;BME280;58618;47.490;8.736;2023-07-29T01:37:27;96180.81;;;15.54;100.00
70954;BME280;58618;47.490;8.736;2023-07-29T01:40:18;96195.34;;;15.46;100.00
70954;BME280;58618;47.490;8.736;2023-07-29T01:43:07;96192.88;;;15.58;100.00
70954;BME280;58618;47.490;8.736;2023-07-29T01:45:55;96178.19;;;15.62;100.00
70954;BME280;58618;47.490;8.736;2023-07-29T01:48:42;96176.53;;;15.58;100.00
70954;BME280;58618;47.490;8.736;2023-07-29T01:51:30;96179.59;;;15.51;100.00
70954;BME280;58618;47.490;8.736;2023-07-29T01:54:17;96173.31;;;15.52;100.00
70954;BME280;58618;47.490;8.736;2023-07-29T01:57:04;96182.47;;;15.58;100.00
70954;BME280;58618;47.490;8.736;2023-07-29T01:59:53;96191.19;;;15.62;100.00
70954;BME280;58618;47.490;8.736;2023-07-29T02:02:40;96221.25;;;15.81;100.00
70954;BME280;58618;47.490;8.736;2023-07-29T02:05:28;96225.47;;;15.94;100.00
70954;BME280;58618;47.490;8.736;2023-07-29T02:08:15;96177.59;;;15.86;100.00
70954;BME280;58618;47.490;8.736;2023-07-29T02:11:02;96145.66;;;15.86;100.00
70954;BME280;58618;47.490;8.736;2023-07-29T02:13:50;96172.06;;;15.96;100.00
70954;BME280;58618;47.490;8.736;2023-07-29T02:16:39;96174.97;;;15.95;100.00
70954;BME280;58618;47.490;8.736;2023-07-29T02:19:27;96174.97;;;15.95;100.00
70954;BME280;58618;47.490;8.736;2023-07-29T02:22:16;96163.88;;;15.86;100.00
70954;BME280;58618;47.490;8.736;2023-07-29T02:25:04;96150.88;;;15.77;100.00
70954;BME280;58618;47.490;8.736;2023-07-29T02:27:52;96162.41;;;15.97;100.00
70954;BME280;58618;47.490;8.736;2023-07-29T02:30:41;96163.16;;;15.97;100.00
70954;BME280;58618;47.490;8.736;2023-07-29T02:33:31;96159.09;;;15.88;100.00
70954;BME280;58618;47.490;8.736;2023-07-29T02:36:19;96154.06;;;15.83;100.00
70954;BME280;58618;47.490;8.736;2023-07-29T02:39:06;96154.97;;;15.87;100.00
70954;BME280;58618;47.490;8.736;2023-07-29T02:41:54;96155.53;;;15.92;100.00
70954;BME280;58618;47.490;8.736;2023-07-29T02:44:42;96148.56;;;15.84;100.00
70954;BME280;58618;47.490;8.736;2023-07-29T02:47:29;96153.00;;;15.84;100.00
70954;BME280;58618;47.490;8.736;2023-07-29T02:50:18;96155.41;;;15.89;100.00
70954;BME280;58618;47.490;8.736;2023-07-29T02:53:05;96164.47;;;15.83;100.00
70954;BME280;58618;47.490;8.736;2023-07-29T02:55:52;96168.59;;;15.84;100.00
70954;BME280;58618;47.490;8.736;2023-07-29T02:58:40;96170.66;;;15.99;100.00
70954;BME280;58618;47.490;8.736;2023-07-29T03:01:27;96177.22;;;16.05;100.00
70954;BME280;58618;47.490;8.736;2023-07-29T03:04:14;96178.94;;;16.01;100.00
70954;BME280;58618;47.490;8.736;2023-07-29T03:07:03;96177.59;;;15.95;100.00
70954;BME280;58618;47.490;8.736;2023-07-29T03:09:50;96197.94;;;15.93;100.00
70954;BME280;58618;47.490;8.736;2023-07-29T03:12:38;96204.94;;;16.01;100.00
70954;BME280;58618;47.490;8.736;2023-07-29T03:15:25;96183.22;;;15.97;100.00
70954;BME280;58618;47.490;8.736;2023-07-29T03:18:13;96177.47;;;15.91;100.00
70954;BME280;58618;47.490;8.736;2023-07-29T03:21:00;96186.28;;;15.99;100.00
70954;BME280;58618;47.490;8.736;2023-07-29T03:23:49;96188.41;;;15.97;100.00
70954;BME280;58618;47.490;8.736;2023-07-29T03:26:36;96174.09;;;15.91;100.00
70954;BME280;58618;47.490;8.736;2023-07-29T03:29:24;96176.50;;;15.96;100.00
70954;BME280;58618;47.490;8.736;2023-07-29T03:32:11;96171.66;;;15.86;100.00
70954;BME280;58618;47.490;8.736;2023-07-29T03:34:58;96172.28;;;15.83;100.00
70954;BME280;58618;47.490;8.736;2023-07-29T03:37:46;96182.31;;;15.93;100.00
70954;BME280;58618;47.490;8.736;2023-07-29T03:40:35;96178.00;;;15.97;100.00
70954;BME280;58618;47.490;8.736;2023-07-29T03:43:22;96172.59;;;16.11;100.00
70954;BME280;58618;47.490;8.736;2023-07-29T03:46:09;96185.16;;;16.09;100.00
70954;BME280;58618;47.490;8.736;2023-07-29T03:48:56;96188.53;;;16.09;100.00
70954;BME280;58618;47.490;8.736;2023-07-29T03:51:44;96194.19;;;16.11;100.00
70954;BME280;58618;47.490;8.736;2023-07-29T03:54:31;96185.91;;;16.09;100.00
70954;BME280;58618;47.490;8.736;2023-07-29T03:57:20;96180.34;;;16.19;100.00
70954;BME280;58618;47.490;8.736;2023-07-29T04:00:08;96188.25;;;16.31;100.00
70954;BME280;58618;47.490;8.736;2023-07-29T04:02:56;96201.53;;;16.38;100.00
70954;BME280;58618;47.490;8.736;2023-07-29T04:05:44;96218.34;;;16.41;100.00
70954;BME280;58618;47.490;8.736;2023-07-29T04:08:31;96212.63;;;16.47;100.00
70954;BME280;58618;47.490;8.736;2023-07-29T04:11:18;96199.31;;;16.49;100.00
70954;BME280;58618;47.490;8.736;2023-07-29T04:14:07;96203.75;;;16.48;100.00
70954;BME280;58618;47.490;8.736;2023-07-29T04:16:54;96199.34;;;16.40;100.00
70954;BME280;58618;47.490;8.736;2023-07-29T04:19:42;96200.69;;;16.46;100.00
70954;BME280;58618;47.490;8.736;2023-07-29T04:22:29;96206.91;;;16.33;100.00
70954;BME280;58618;47.490;8.736;2023-07-29T04:25:17;96198.16;;;16.38;100.00
70954;BME280;58618;47.490;8.736;2023-07-29T04:28:04;96202.78;;;16.32;100.00
70954;BME280;58618;47.490;8.736;2023-07-29T04:30:53;96197.13;;;16.30;100.00
70954;BME280;58618;47.490;8.736;2023-07-29T04:33:41;96195.47;;;16.26;100.00
70954;BME280;58618;47.490;8.736;2023-07-29T04:36:28;96194.31;;;16.15;100.00
70954;BME280;58618;47.490;8.736;2023-07-29T04:39:15;96204.84;;;16.18;100.00
70954;BME280;58618;47.490;8.736;2023-07-29T04:42:03;96203.59;;;16.24;100.00
70954;BME280;58618;47.490;8.736;2023-07-29T04:44:50;96202.81;;;16.24;100.00
70954;BME280;58618;47.490;8.736;2023-07-29T04:47:39;96208.56;;;16.38;100.00
70954;BME280;58618;47.490;8.736;2023-07-29T04:50:26;96207.81;;;16.37;100.00
70954;BME280;58618;47.490;8.736;2023-07-29T04:53:14;96205.31;;;16.41;100.00
70954;BME280;58618;47.490;8.736;2023-07-29T04:56:01;96203.09;;;16.52;100.00
70954;BME280;58618;47.490;8.736;2023-07-29T04:58:48;96203.09;;;16.52;100.00
70954;BME280;58618;47.490;8.736;2023-07-29T05:01:36;96197.41;;;16.58;100.00
70954;BME280;58618;47.490;8.736;2023-07-29T05:04:24;96191.06;;;16.68;100.00
70954;BME280;58618;47.490;8.736;2023-07-29T05:07:11;96183.94;;;16.77;100.00
70954;BME280;58618;47.490;8.736;2023-07-29T05:09:59;96180.91;;;16.75;100.00
70954;BME280;58618;47.490;8.736;2023-07-29T05:12:46;96185.13;;;17.33;100.00
70954;BME280;58618;47.490;8.736;2023-07-29T05:15:33;96197.09;;;17.34;100.00
70954;BME280;58618;47.490;8.736;2023-07-29T05:18:21;96197.06;;;18.03;100.00
70954;BME280;58618;47.490;8.736;2023-07-29T05:21:09;96195.31;;;17.95;100.00
70954;BME280;58618;47.490;8.736;2023-07-29T05:23:57;96198.78;;;17.87;100.00
70954;BME280;58618;47.490;8.736;2023-07-29T05:26:44;96195.75;;;18.09;100.00
70954;BME280;58618;47.490;8.736;2023-07-29T05:29:32;96209.03;;;18.04;100.00
70954;BME280;58618;47.490;8.736;2023-07-29T05:32:19;96206.09;;;17.94;100.00
70954;BME280;58618;47.490;8.736;2023-07-29T05:35:07;96208.16;;;18.00;100.00
70954;BME280;58618;47.490;8.736;2023-07-29T05:37:56;96210.13;;;17.91;100.00
70954;BME280;58618;47.490;8.736;2023-07-29T05:40:43;96219.47;;;17.80;100.00
70954;BME280;58618;47.490;8.736;2023-07-29T05:43:30;96216.72;;;17.77;100.00
70954;BME280;58618;47.490;8.736;2023-07-29T05:46:17;96225.13;;;17.94;100.00
70954;BME280;58618;47.490;8.736;2023-07-29T05:49:05;96222.44;;;19.35;100.00
70954;BME280;58618;47.490;8.736;2023-07-29T05:51:52;96215.38;;;19.51;100.00
70954;BME280;58618;47.490;8.736;2023-07-29T05:54:41;96218.53;;;19.29;100.00
70954;BME280;58618;47.490;8.736;2023-07-29T05:57:28;96229.78;;;20.55;100.00
70954;BME280;58618;47.490;8.736;2023-07-29T06:00:16;96217.66;;;22.38;100.00
70954;BME280;58618;47.490;8.736;2023-07-29T06:03:03;96223.13;;;21.15;100.00
70954;BME280;58618;47.490;8.736;2023-07-29T06:05:50;96223.03;;;21.31;100.00
70954;BME280;58618;47.490;8.736;2023-07-29T06:08:38;96216.28;;;21.11;100.00
70954;BME280;58618;47.490;8.736;2023-07-29T06:11:26;96212.38;;;20.47;100.00
70954;BME280;58618;47.490;8.736;2023-07-29T06:14:14;96216.38;;;21.79;100.00
70954;BME280;58618;47.490;8.736;2023-07-29T06:17:01;96212.09;;;23.02;100.00
70954;BME280;58618;47.490;8.736;2023-07-29T06:19:48;96219.03;;;23.98;100.00
70954;BME280;58618;47.490;8.736;2023-07-29T06:22:35;96218.97;;;23.10;100.00
70954;BME280;58618;47.490;8.736;2023-07-29T06:25:23;96205.47;;;22.82;100.00
70954;BME280;58618;47.490;8.736;2023-07-29T06:28:11;96222.09;;;22.07;100.00
70954;BME280;58618;47.490;8.736;2023-07-29T06:30:58;96225.41;;;21.81;100.00
70954;BME280;58618;47.490;8.736;2023-07-29T06:33:46;96220.69;;;22.13;100.00
70954;BME280;58618;47.490;8.736;2023-07-29T06:36:34;96220.41;;;21.96;100.00
70954;BME280;58618;47.490;8.736;2023-07-29T06:39:21;96219.28;;;21.74;100.00
70954;BME280;58618;47.490;8.736;2023-07-29T06:42:08;96230.16;;;21.11;100.00
70954;BME280;58618;47.490;8.736;2023-07-29T06:44:57;96228.63;;;21.10;100.00
70954;BME280;58618;47.490;8.736;2023-07-29T06:47:45;96231.22;;;20.52;100.00
70954;BME280;58618;47.490;8.736;2023-07-29T06:50:32;96229.59;;;20.63;100.00
70954;BME280;58618;47.490;8.736;2023-07-29T06:53:19;96222.63;;;20.71;100.00
70954;BME280;58618;47.490;8.736;2023-07-29T06:56:07;96220.19;;;20.62;100.00
70954;BME280;58618;47.490;8.736;2023-07-29T06:58:54;96234.19;;;21.66;100.00
70954;BME280;58618;47.490;8.736;2023-07-29T07:01:43;96220.78;;;22.73;100.00
70954;BME280;58618;47.490;8.736;2023-07-29T07:04:30;96232.91;;;22.28;100.00
70954;BME280;58618;47.490;8.736;2023-07-29T07:07:17;96227.72;;;22.88;100.00
70954;BME280;58618;47.490;8.736;2023-07-29T07:10:05;96227.00;;;22.91;100.00
70954;BME280;58618;47.490;8.736;2023-07-29T07:12:53;96221.59;;;22.77;100.00
70954;BME280;58618;47.490;8.736;2023-07-29T07:15:40;96216.38;;;22.84;100.00
70954;BME280;58618;47.490;8.736;2023-07-29T07:18:28;96217.84;;;23.11;100.00
70954;BME280;58618;47.490;8.736;2023-07-29T07:21:16;96214.91;;;22.83;100.00
70954;BME280;58618;47.490;8.736;2023-07-29T07:24:04;96213.59;;;22.44;100.00
70954;BME280;58618;47.490;8.736;2023-07-29T07:26:51;96206.19;;;23.12;100.00
70954;BME280;58618;47.490;8.736;2023-07-29T07:29:38;96211.75;;;24.29;100.00
70954;BME280;58618;47.490;8.736;2023-07-29T07:32:26;96210.75;;;25.62;100.00
70954;BME280;58618;47.490;8.736;2023-07-29T07:35:14;96205.41;;;25.34;100.00
70954;BME280;58618;47.490;8.736;2023-07-29T07:38:02;96214.53;;;26.04;100.00
70954;BME280;58618;47.490;8.736;2023-07-29T07:40:53;96212.09;;;26.84;100.00
70954;BME280;58618;47.490;8.736;2023-07-29T07:43:41;96202.63;;;27.63;100.00
70954;BME280;58618;47.490;8.736;2023-07-29T07:46:29;96205.47;;;27.86;96.42
70954;BME280;58618;47.490;8.736;2023-07-29T07:49:16;96195.84;;;29.12;100.00
70954;BME280;58618;47.490;8.736;2023-07-29T07:52:05;96187.84;;;29.42;100.00
70954;BME280;58618;47.490;8.736;2023-07-29T07:54:53;96183.78;;;28.73;100.00
70954;BME280;58618;47.490;8.736;2023-07-29T07:57:41;96183.47;;;28.34;100.00
70954;BME280;58618;47.490;8.736;2023-07-29T08:00:28;96187.34;;;28.26;97.32
70954;BME280;58618;47.490;8.736;2023-07-29T08:03:17;96199.75;;;30.50;81.62
70954;BME280;58618;47.490;8.736;2023-07-29T08:06:04;96197.63;;;28.91;98.46
70954;BME280;58618;47.490;8.736;2023-07-29T08:08:53;96192.41;;;27.65;100.00
70954;BME280;58618;47.490;8.736;2023-07-29T08:11:40;96200.41;;;27.58;100.00
70954;BME280;58618;47.490;8.736;2023-07-29T08:14:27;96194.41;;;27.40;100.00
70954;BME280;58618;47.490;8.736;2023-07-29T08:17:15;96197.78;;;26.67;100.00
70954;BME280;58618;47.490;8.736;2023-07-29T08:20:02;96211.88;;;27.34;100.00
70954;BME280;58618;47.490;8.736;2023-07-29T08:22:50;96198.97;;;27.39;100.00
70954;BME280;58618;47.490;8.736;2023-07-29T08:25:38;96198.53;;;26.68;100.00
70954;BME280;58618;47.490;8.736;2023-07-29T08:28:26;96194.88;;;26.26;100.00
70954;BME280;58618;47.490;8.736;2023-07-29T08:31:13;96187.78;;;27.10;100.00
70954;BME280;58618;47.490;8.736;2023-07-29T08:34:01;96181.84;;;26.88;100.00
70954;BME280;58618;47.490;8.736;2023-07-29T08:36:48;96193.38;;;26.15;100.00
70954;BME280;58618;47.490;8.736;2023-07-29T08:39:35;96198.56;;;25.12;100.00
70954;BME280;58618;47.490;8.736;2023-07-29T08:42:28;96204.56;;;24.95;100.00
70954;BME280;58618;47.490;8.736;2023-07-29T08:45:17;96200.19;;;25.87;100.00
70954;BME280;58618;47.490;8.736;2023-07-29T08:48:07;96200.72;;;27.01;100.00
70954;BME280;58618;47.490;8.736;2023-07-29T08:50:55;96197.88;;;26.28;100.00
70954;BME280;58618;47.490;8.736;2023-07-29T08:53:43;96198.47;;;26.96;100.00
70954;BME280;58618;47.490;8.736;2023-07-29T08:56:30;96209.59;;;26.34;100.00
70954;BME280;58618;47.490;8.736;2023-07-29T08:59:19;96206.81;;;26.84;100.00
70954;BME280;58618;47.490;8.736;2023-07-29T09:02:07;96213.13;;;27.77;100.00
70954;BME280;58618;47.490;8.736;2023-07-29T09:04:54;96208.28;;;28.17;100.00
70954;BME280;58618;47.490;8.736;2023-07-29T09:07:42;96206.03;;;28.86;97.95
70954;BME280;58618;47.490;8.736;2023-07-29T09:10:35;96202.16;;;28.57;100.00
70954;BME280;58618;47.490;8.736;2023-07-29T09:13:22;96200.16;;;28.31;100.00
70954;BME280;58618;47.490;8.736;2023-07-29T09:16:11;96188.97;;;29.68;85.05
70954;BME280;58618;47.490;8.736;2023-07-29T09:19:01;96191.59;;;29.95;87.93
70954;BME280;58618;47.490;8.736;2023-07-29T09:21:49;96192.63;;;28.63;96.87
70954;BME280;58618;47.490;8.736;2023-07-29T09:24:36;96186.31;;;28.84;100.00
70954;BME280;58618;47.490;8.736;2023-07-29T09:27:24;96190.25;;;29.33;96.31
70954;BME280;58618;47.490;8.736;2023-07-29T09:30:15;96187.94;;;29.35;89.34
70954;BME280;58618;47.490;8.736;2023-07-29T09:33:05;96190.69;;;29.55;85.02
70954;BME280;58618;47.490;8.736;2023-07-29T09:35:52;96186.34;;;28.50;99.04
70954;BME280;58618;47.490;8.736;2023-07-29T09:38:39;96189.03;;;29.64;79.17
70954;BME280;58618;47.490;8.736;2023-07-29T09:41:28;96182.53;;;29.89;71.73
70954;BME280;58618;47.490;8.736;2023-07-29T09:44:17;96190.03;;;29.47;83.54
70954;BME280;58618;47.490;8.736;2023-07-29T09:47:04;96183.31;;;29.12;87.84
70954;BME280;58618;47.490;8.736;2023-07-29T09:49:53;96193.13;;;28.10;90.16
70954;BME280;58618;47.490;8.736;2023-07-29T09:52:41;96184.03;;;28.14;93.99
70954;BME280;58618;47.490;8.736;2023-07-29T09:55:28;96183.41;;;28.71;86.21
70954;BME280;58618;47.490;8.736;2023-07-29T09:58:19;96188.78;;;27.89;94.53
70954;BME280;58618;47.490;8.736;2023-07-29T10:01:07;96189.50;;;27.93;96.22
70954;BME280;58618;47.490;8.736;2023-07-29T10:03:55;96192.09;;;27.49;95.36
70954;BME280;58618;47.490;8.736;2023-07-29T10:06:47;96181.66;;;27.27;95.42
70954;BME280;58618;47.490;8.736;2023-07-29T10:09:35;96182.84;;;27.75;84.30
70954;BME280;58618;47.490;8.736;2023-07-29T10:12:24;96182.66;;;27.96;80.03
70954;BME280;58618;47.490;8.736;2023-07-29T10:15:12;96188.16;;;27.71;90.99
70954;BME280;58618;47.490;8.736;2023-07-29T10:18:01;96184.78;;;27.08;92.90
70954;BME280;58618;47.490;8.736;2023-07-29T10:20:50;96183.34;;;26.93;97.94
70954;BME280;58618;47.490;8.736;2023-07-29T10:23:43;96182.50;;;27.10;85.25
70954;BME280;58618;47.490;8.736;2023-07-29T10:26:36;96179.28;;;26.60;90.36
70954;BME280;58618;47.490;8.736;2023-07-29T10:29:30;96182.72;;;26.50;100.00
70954;BME280;58618;47.490;8.736;2023-07-29T10:32:20;96186.50;;;26.56;100.00
70954;BME280;58618;47.490;8.736;2023-07-29T10:35:09;96173.53;;;26.83;100.00
70954;BME280;58618;47.490;8.736;2023-07-29T10:37:57;96176.25;;;26.65;100.00
70954;BME280;58618;47.490;8.736;2023-07-29T10:40:47;96168.88;;;27.08;97.16
70954;BME280;58618;47.490;8.736;2023-07-29T10:43:36;96175.09;;;26.70;100.00
70954;BME280;58618;47.490;8.736;2023-07-29T10:46:24;96169.50;;;26.46;100.00
70954;BME280;58618;47.490;8.736;2023-07-29T10:49:12;96173.53;;;26.83;99.65
70954;BME280;58618;47.490;8.736;2023-07-29T10:51:59;96155.31;;;26.99;98.73
70954;BME280;58618;47.490;8.736;2023-07-29T10:54:47;96166.63;;;27.10;94.82
70954;BME280;58618;47.490;8.736;2023-07-29T10:57:39;96148.44;;;27.09;85.86
70954;BME280;58618;47.490;8.736;2023-07-29T11:00:30;96155.38;;;26.85;94.36
70954;BME280;58618;47.490;8.736;2023-07-29T11:03:17;96146.91;;;26.17;97.81
70954;BME280;58618;47.490;8.736;2023-07-29T11:06:05;96149.56;;;26.24;91.90
70954;BME280;58618;47.490;8.736;2023-07-29T11:08:52;96142.72;;;26.30;98.21
70954;BME280;58618;47.490;8.736;2023-07-29T11:11:40;96150.34;;;25.93;100.00
70954;BME280;58618;47.490;8.736;2023-07-29T11:14:29;96149.16;;;26.33;96.65
70954;BME280;58618;47.490;8.736;2023-07-29T11:17:17;96159.31;;;26.45;92.97
70954;BME280;58618;47.490;8.736;2023-07-29T11:20:06;96163.50;;;26.28;97.63
70954;BME280;58618;47.490;8.736;2023-07-29T11:22:55;96152.63;;;25.91;97.56
70954;BME280;58618;47.490;8.736;2023-07-29T11:25:42;96144.84;;;24.62;100.00
70954;BME280;58618;47.490;8.736;2023-07-29T11:28:30;96140.97;;;24.31;100.00
70954;BME280;58618;47.490;8.736;2023-07-29T11:31:18;96139.66;;;24.07;100.00
70954;BME280;58618;47.490;8.736;2023-07-29T11:34:06;96142.97;;;23.93;100.00
70954;BME280;58618;47.490;8.736;2023-07-29T11:36:54;96150.38;;;23.77;100.00
70954;BME280;58618;47.490;8.736;2023-07-29T11:39:41;96152.25;;;23.33;100.00
70954;BME280;58618;47.490;8.736;2023-07-29T11:42:31;96165.06;;;22.97;100.00
70954;BME280;58618;47.490;8.736;2023-07-29T11:45:20;96157.56;;;22.66;100.00
70954;BME280;58618;47.490;8.736;2023-07-29T11:48:09;96150.66;;;22.54;100.00
70954;BME280;58618;47.490;8.736;2023-07-29T11:50:56;96161.06;;;22.47;100.00
70954;BME280;58618;47.490;8.736;2023-07-29T11:53:44;96158.75;;;22.42;100.00
70954;BME280;58618;47.490;8.736;2023-07-29T11:56:32;96145.38;;;22.54;100.00
70954;BME280;58618;47.490;8.736;2023-07-29T11:59:19;96126.19;;;22.80;100.00
70954;BME280;58618;47.490;8.736;2023-07-29T12:02:09;96125.84;;;22.85;100.00
70954;BME280;58618;47.490;8.736;2023-07-29T12:04:59;96132.50;;;23.12;100.00
70954;BME280;58618;47.490;8.736;2023-07-29T12:07:46;96153.91;;;23.48;100.00
70954;BME280;58618;47.490;8.736;2023-07-29T12:10:34;96170.22;;;23.64;100.00
70954;BME280;58618;47.490;8.736;2023-07-29T12:13:24;96180.81;;;23.31;100.00
70954;BME280;58618;47.490;8.736;2023-07-29T12:16:16;96187.69;;;23.42;100.00
70954;BME280;58618;47.490;8.736;2023-07-29T12:19:04;96188.56;;;23.16;100.00
70954;BME280;58618;47.490;8.736;2023-07-29T12:21:52;96184.75;;;22.77;100.00
70954;BME280;58618;47.490;8.736;2023-07-29T12:24:40;96176.75;;;22.70;100.00
70954;BME280;58618;47.490;8.736;2023-07-29T12:27:30;96169.06;;;22.24;100.00
70954;BME280;58618;47.490;8.736;2023-07-29T12:30:20;96184.09;;;21.78;100.00
70954;BME280;58618;47.490;8.736;2023-07-29T12:33:08;96194.47;;;21.68;100.00
70954;BME280;58618;47.490;8.736;2023-07-29T12:35:55;96194.34;;;21.61;100.00
70954;BME280;58618;47.490;8.736;2023-07-29T12:38:44;96213.78;;;21.37;100.00
70954;BME280;58618;47.490;8.736;2023-07-29T12:41:32;96234.75;;;21.14;100.00
70954;BME280;58618;47.490;8.736;2023-07-29T12:44:19;96244.59;;;21.21;100.00
70954;BME280;58618;47.490;8.736;2023-07-29T12:47:07;96231.53;;;21.05;100.00
70954;BME280;58618;47.490;8.736;2023-07-29T12:49:57;96225.03;;;20.80;100.00
70954;BME280;58618;47.490;8.736;2023-07-29T12:52:44;96223.63;;;20.47;100.00
70954;BME280;58618;47.490;8.736;2023-07-29T12:55:33;96226.88;;;20.41;100.00
70954;BME280;58618;47.490;8.736;2023-07-29T12:58:20;96264.56;;;20.36;100.00
70954;BME280;58618;47.490;8.736;2023-07-29T13:01:08;96302.66;;;20.49;100.00
70954;BME280;58618;47.490;8.736;2023-07-29T13:03:59;96305.81;;;20.39;100.00
70954;BME280;58618;47.490;8.736;2023-07-29T13:06:46;96308.91;;;20.13;100.00
70954;BME280;58618;47.490;8.736;2023-07-29T13:09:33;96261.13;;;19.57;100.00
70954;BME280;58618;47.490;8.736;2023-07-29T13:12:22;96271.91;;;19.40;100.00
70954;BME280;58618;47.490;8.736;2023-07-29T13:15:10;96280.06;;;19.11;100.00
70954;BME280;58618;47.490;8.736;2023-07-29T13:17:57;96274.69;;;18.79;100.00
70954;BME280;58618;47.490;8.736;2023-07-29T13:20:44;96279.56;;;18.93;100.00
70954;BME280;58618;47.490;8.736;2023-07-29T13:23:32;96279.31;;;18.70;100.00
70954;BME280;58618;47.490;8.736;2023-07-29T13:26:19;96285.97;;;18.55;100.00
70954;BME280;58618;47.490;8.736;2023-07-29T13:29:08;96290.84;;;18.33;100.00
70954;BME280;58618;47.490;8.736;2023-07-29T13:31:55;96304.97;;;18.44;100.00
70954;BME280;58618;47.490;8.736;2023-07-29T13:34:42;96298.34;;;18.46;100.00
70954;BME280;58618;47.490;8.736;2023-07-29T13:37:30;96299.09;;;18.47;100.00
70954;BME280;58618;47.490;8.736;2023-07-29T13:40:17;96277.13;;;18.60;100.00
70954;BME280;58618;47.490;8.736;2023-07-29T13:43:04;96263.38;;;18.75;100.00
70954;BME280;58618;47.490;8.736;2023-07-29T13:45:53;96260.75;;;18.87;100.00
70954;BME280;58618;47.490;8.736;2023-07-29T13:48:40;96264.09;;;19.00;100.00
70954;BME280;58618;47.490;8.736;2023-07-29T13:51:27;96258.59;;;19.17;100.00
70954;BME280;58618;47.490;8.736;2023-07-29T13:54:15;96268.84;;;19.38;100.00
70954;BME280;58618;47.490;8.736;2023-07-29T13:57:02;96272.16;;;19.35;100.00
70954;BME280;58618;47.490;8.736;2023-07-29T13:59:50;96268.47;;;19.52;100.00
70954;BME280;58618;47.490;8.736;2023-07-29T14:02:38;96270.63;;;19.77;100.00
70954;BME280;58618;47.490;8.736;2023-07-29T14:05:26;96264.22;;;19.91;100.00
70954;BME280;58618;47.490;8.736;2023-07-29T14:08:13;96262.53;;;19.83;100.00
70954;BME280;58618;47.490;8.736;2023-07-29T14:11:01;96279.16;;;19.74;100.00
70954;BME280;58618;47.490;8.736;2023-07-29T14:13:48;96287.00;;;19.74;100.00
70954;BME280;58618;47.490;8.736;2023-07-29T14:16:35;96283.56;;;19.86;100.00
70954;BME280;58618;47.490;8.736;2023-07-29T14:19:24;96295.81;;;19.98;100.00
70954;BME280;58618;47.490;8.736;2023-07-29T14:22:11;96292.44;;;20.13;100.00
70954;BME280;58618;47.490;8.736;2023-07-29T14:24:58;96300.81;;;20.03;100.00
70954;BME280;58618;47.490;8.736;2023-07-29T14:27:46;96300.03;;;19.87;100.00
70954;BME280;58618;47.490;8.736;2023-07-29T14:30:33;96301.31;;;19.93;100.00
70954;BME280;58618;47.490;8.736;2023-07-29T14:33:21;96315.69;;;20.14;100.00
70954;BME280;58618;47.490;8.736;2023-07-29T14:36:10;96323.03;;;19.93;100.00
70954;BME280;58618;47.490;8.736;2023-07-29T14:38:57;96310.09;;;20.00;100.00